Tai Harvest — H9ZB — position and weather

sailwx.info

Track history (hours):
 
Tides and Currents Weather Stations Pressure Air Temp Water Temp Dewpoint Dewpoint Depression Visibility Wind Speed Wind Dir Waves Ship Positions

Tai Harvest

Last reported at 2018-Jun-12 21:34 UTC. Time now 2018-Jun-24 12:56 UTC.
Position N 37°04' E 003°52'.
Warning: this ship's position is 11 days out of date.

Length 190 m; draft 12.1 m.

Type: Cargo ship. MMSI: 351134000.

Date/timePositionNaut miles runAvg speedWind from/ knotsBaromVisibWave heightAir tempDewpointWater temp
2018-Jun-12 21:34N 37°04' E 003°52'113.4
2018-Jun-12 21:29N 37°04' E 003°51'813.5
2018-Jun-12 20:56N 37°02' E 003°41'3212.6
2018-Jun-12 18:23N 36°58' E 003°02'512.4
2018-Jun-12 18:00N 36°57' E 002°56'612.4
2018-Jun-12 17:30N 36°56' E 002°48'612.4
2018-Jun-12 16:59N 36°55' E 002°40'713.2
2018-Jun-12 16:29N 36°54' E 002°32'713.5
2018-Jun-12 16:00N 36°54' E 002°24'713.6
2018-Jun-12 15:29N 36°53' E 002°15'813.3
2018-Jun-12 14:53N 36°51' E 002°05'513.6
2018-Jun-12 14:30N 36°50' E 001°59'814.5
2018-Jun-12 13:59N 36°50' E 001°49'714.4
2018-Jun-12 13:30N 36°49' E 001°41'714.0
2018-Jun-12 12:59N 36°48' E 001°32'713.9
2018-Jun-12 12:30N 36°47' E 001°24'3213.6
2018-Jun-12 10:10N 36°42' E 000°44'412.9
2018-Jun-12 09:53N 36°42' E 000°40'612.7
2018-Jun-12 09:24N 36°41' E 000°32'512.7
2018-Jun-12 09:00N 36°40' E 000°26'612.8
2018-Jun-12 08:30N 36°39' E 000°18'713.1
2018-Jun-12 07:59N 36°38' E 000°10'3213.1
2018-Jun-12 05:32N 36°33' W 000°30'212.6
2018-Jun-12 05:23N 36°33' W 000°32'612.6
2018-Jun-12 04:55N 36°32' W 000°39'712.6
2018-Jun-12 04:21N 36°31' W 000°48'22210.1
2018-Jun-11 06:23N 36°07' W 005°22'0 0.0
2018-Jun-11 05:53N 36°07' W 005°22'0 0.0
2018-Jun-11 05:29N 36°07' W 005°22'0 0.0
2018-Jun-11 04:59N 36°07' W 005°22'0 0.0
2018-Jun-11 04:29N 36°07' W 005°22'0 0.1
2018-Jun-11 03:53N 36°08' W 005°22'0 0.1
2018-Jun-11 03:29N 36°08' W 005°22'0 0.2
2018-Jun-11 02:59N 36°07' W 005°22'0 0.2
2018-Jun-11 02:29N 36°08' W 005°22'1 2.3
2018-Jun-11 02:01N 36°06' W 005°22'4 8.8
2018-Jun-11 01:30N 36°02' W 005°23'611.4
2018-Jun-11 01:00N 35°57' W 005°27'713.0
2018-Jun-11 00:27N 35°55' W 005°36'24011.1
2018-Jun-10 02:55N 37°57' W 009°53'612.3
2018-Jun-10 02:26N 38°03' W 009°55'1312.3
2018-Jun-10 01:22N 38°16' W 009°58'512.5
2018-Jun-10 01:00N 38°21' W 009°60'612.4
2018-Jun-10 00:30N 38°27' W 010°02'612.6
2018-Jun-10 00:00N 38°33' W 010°04'712.3
2018-Jun-09 23:26N 38°39' W 010°05'612.2
2018-Jun-09 22:59N 38°45' W 010°06'612.2
2018-Jun-09 22:30N 38°51' W 010°07'611.7
2018-Jun-09 22:00N 38°56' W 010°08'612.1
2018-Jun-09 21:30N 39°02' W 010°12'611.8
2018-Jun-09 21:00N 39°08' W 010°13'  
2018-Jun-07 14:53N 50°18' W 010°51'512.1
2018-Jun-07 14:29N 50°23' W 010°52'1012.3
2018-Jun-07 13:41N 50°33' W 010°53'412.4
2018-Jun-07 13:21N 50°37' W 010°53'512.7
2018-Jun-07 12:56N 50°42' W 010°53'612.8
2018-Jun-07 12:30N 50°48' W 010°53'712.6
2018-Jun-07 11:58N 50°55' W 010°53'612.2
2018-Jun-07 11:29N 51°01' W 010°54'612.2
2018-Jun-07 11:00N 51°07' W 010°54'612.2
2018-Jun-07 10:28N 51°13' W 010°55'612.1
2018-Jun-07 10:00N 51°19' W 010°55'712.0
2018-Jun-07 09:27N 51°25' W 010°56'712.3
2018-Jun-07 08:53N 51°32' W 010°56'812.3
2018-Jun-07 08:14N 51°40' W 010°56'412.5
2018-Jun-07 07:56N 51°44' W 010°57'512.5
2018-Jun-07 07:30N 51°49' W 010°57'712.3
2018-Jun-07 06:53N 51°57' W 010°57'712.4
2018-Jun-07 06:18N 52°04' W 010°58'412.1
2018-Jun-07 05:59N 52°08' W 010°57'612.1
2018-Jun-07 05:28N 52°14' W 010°56'1512.5
2018-Jun-07 04:13N 52°30' W 010°54'5412.6
2018-Jun-06 23:59N 53°23' W 010°46'612.4
2018-Jun-06 23:29N 53°29' W 010°45'1012.4
2018-Jun-06 22:39N 53°39' W 010°43'212.5
2018-Jun-06 22:30N 53°41' W 010°43'612.6
2018-Jun-06 22:00N 53°47' W 010°42'612.7
2018-Jun-06 21:30N 53°54' W 010°41'612.4
2018-Jun-06 21:00N 53°60' W 010°40'612.2
2018-Jun-06 20:30N 54°06' W 010°39'712.3
2018-Jun-06 19:57N 54°13' W 010°36'612.4
2018-Jun-06 19:30N 54°18' W 010°34'612.2
2018-Jun-06 19:00N 54°24' W 010°32'  
2018-Jun-04 01:19N 63°08' E 006°28'411.8
2018-Jun-04 01:00N 63°09' E 006°36'611.7
2018-Jun-04 00:30N 63°11' E 006°49'611.6
2018-Jun-04 00:00N 63°12' E 007°01'611.9
2018-Jun-03 23:30N 63°13' E 007°14'612.0
2018-Jun-03 23:00N 63°14' E 007°27'510.8
2018-Jun-03 22:31N 63°14' E 007°39'4 7.5
2018-Jun-03 22:01N 63°12' E 007°46'510.2
2018-Jun-03 21:30N 63°08' E 007°53'510.3
2018-Jun-03 21:00N 63°03' E 007°54'611.9
2018-Jun-03 20:30N 62°59' E 007°43'611.9
2018-Jun-03 20:00N 62°56' E 007°32'4 7.1
2018-Jun-03 19:28N 62°58' E 007°24'0 0.2
2018-Jun-03 18:58N 62°58' E 007°24'0 0.0
2018-Jun-03 18:28N 62°57' E 007°24'0 0.0
2018-Jun-03 17:58N 62°57' E 007°24'0 0.0
2018-Jun-03 17:28N 62°57' E 007°24'0 0.0
2018-Jun-03 16:58N 62°57' E 007°24'0 0.0
2018-Jun-03 16:28N 62°57' E 007°24'0 0.0
2018-Jun-03 15:58N 62°57' E 007°24'0 0.0
2018-Jun-03 15:28N 62°57' E 007°24'0 0.0
2018-Jun-03 14:58N 62°57' E 007°24'0 0.0
2018-Jun-03 14:28N 62°57' E 007°24'0 0.0
2018-Jun-03 13:58N 62°58' E 007°24'0 0.1
2018-Jun-03 13:28N 62°57' E 007°24'0 0.0
2018-Jun-03 12:58N 62°57' E 007°24'0 0.0
2018-Jun-03 12:28N 62°57' E 007°24'0 0.0
2018-Jun-03 11:58N 62°57' E 007°24'0 0.0
2018-Jun-03 11:28N 62°57' E 007°24'0 0.0
2018-Jun-03 10:58N 62°57' E 007°24'0 0.0
2018-Jun-03 10:28N 62°57' E 007°24'0 0.0
2018-Jun-03 09:58N 62°57' E 007°24'0 0.0
2018-Jun-03 09:28N 62°57' E 007°24'0 0.0
2018-Jun-03 08:58N 62°57' E 007°24'0 0.0
2018-Jun-03 08:28N 62°57' E 007°24'0 0.1
2018-Jun-03 07:58N 62°58' E 007°24'0 0.0
2018-Jun-03 07:28N 62°57' E 007°24'0 0.0
2018-Jun-03 06:58N 62°57' E 007°24'0 0.0
2018-Jun-03 06:28N 62°57' E 007°24'0 0.0
2018-Jun-03 05:58N 62°57' E 007°24'0 0.0
2018-Jun-03 05:28N 62°57' E 007°24'0 0.0
2018-Jun-03 04:58N 62°57' E 007°24'0 0.0
2018-Jun-03 04:28N 62°57' E 007°24'0 0.0
2018-Jun-03 03:58N 62°57' E 007°24'0 0.0
2018-Jun-03 03:28N 62°57' E 007°24'0 0.0
2018-Jun-03 02:58N 62°57' E 007°24'0 0.0
2018-Jun-03 02:28N 62°57' E 007°24'0 0.0
2018-Jun-03 01:58N 62°57' E 007°24'0 0.0
2018-Jun-03 01:28N 62°57' E 007°24'0 0.0
2018-Jun-03 00:58N 62°57' E 007°24'0 0.1
2018-Jun-03 00:28N 62°57' E 007°24'0 0.0
2018-Jun-02 23:58N 62°57' E 007°24'0 0.0
2018-Jun-02 23:28N 62°57' E 007°24'0 0.0
2018-Jun-02 22:58N 62°57' E 007°24'0 0.0
2018-Jun-02 22:28N 62°57' E 007°24'0 0.0
2018-Jun-02 21:58N 62°57' E 007°24'  
Track history (hours):
 
Tides and Currents Weather Stations Pressure Air Temp Water Temp Dewpoint Dewpoint Depression Visibility Wind Speed Wind Dir Waves Ship Positions

Tai Harvest

Last reported at 2018-Jun-12 21:34 UTC. Time now 2018-Jun-24 12:56 UTC.
Position N 37°04' E 003°52'.
Warning: this ship's position is 11 days out of date.

Length 190 m; draft 12.1 m.

Type: Cargo ship. MMSI: 351134000.

Date/timePositionNaut miles runAvg speedWind from/ knotsBaromVisibWave heightAir tempDewpointWater temp
2018-Jun-12 21:34N 37°04' E 003°52'113.4
2018-Jun-12 21:29N 37°04' E 003°51'813.5
2018-Jun-12 20:56N 37°02' E 003°41'3212.6
2018-Jun-12 18:23N 36°58' E 003°02'512.4
2018-Jun-12 18:00N 36°57' E 002°56'612.4
2018-Jun-12 17:30N 36°56' E 002°48'612.4
2018-Jun-12 16:59N 36°55' E 002°40'713.2
2018-Jun-12 16:29N 36°54' E 002°32'713.5
2018-Jun-12 16:00N 36°54' E 002°24'713.6
2018-Jun-12 15:29N 36°53' E 002°15'813.3
2018-Jun-12 14:53N 36°51' E 002°05'513.6
2018-Jun-12 14:30N 36°50' E 001°59'814.5
2018-Jun-12 13:59N 36°50' E 001°49'714.4
2018-Jun-12 13:30N 36°49' E 001°41'714.0
2018-Jun-12 12:59N 36°48' E 001°32'713.9
2018-Jun-12 12:30N 36°47' E 001°24'3213.6
2018-Jun-12 10:10N 36°42' E 000°44'412.9
2018-Jun-12 09:53N 36°42' E 000°40'612.7
2018-Jun-12 09:24N 36°41' E 000°32'512.7
2018-Jun-12 09:00N 36°40' E 000°26'612.8
2018-Jun-12 08:30N 36°39' E 000°18'713.1
2018-Jun-12 07:59N 36°38' E 000°10'3213.1
2018-Jun-12 05:32N 36°33' W 000°30'212.6
2018-Jun-12 05:23N 36°33' W 000°32'612.6
2018-Jun-12 04:55N 36°32' W 000°39'712.6
2018-Jun-12 04:21N 36°31' W 000°48'22210.1
2018-Jun-11 06:23N 36°07' W 005°22'0 0.0
2018-Jun-11 05:53N 36°07' W 005°22'0 0.0
2018-Jun-11 05:29N 36°07' W 005°22'0 0.0
2018-Jun-11 04:59N 36°07' W 005°22'0 0.0
2018-Jun-11 04:29N 36°07' W 005°22'0 0.1
2018-Jun-11 03:53N 36°08' W 005°22'0 0.1
2018-Jun-11 03:29N 36°08' W 005°22'0 0.2
2018-Jun-11 02:59N 36°07' W 005°22'0 0.2
2018-Jun-11 02:29N 36°08' W 005°22'1 2.3
2018-Jun-11 02:01N 36°06' W 005°22'4 8.8
2018-Jun-11 01:30N 36°02' W 005°23'611.4
2018-Jun-11 01:00N 35°57' W 005°27'713.0
2018-Jun-11 00:27N 35°55' W 005°36'24011.1
2018-Jun-10 02:55N 37°57' W 009°53'612.3
2018-Jun-10 02:26N 38°03' W 009°55'1312.3
2018-Jun-10 01:22N 38°16' W 009°58'512.5
2018-Jun-10 01:00N 38°21' W 009°60'612.4
2018-Jun-10 00:30N 38°27' W 010°02'612.6
2018-Jun-10 00:00N 38°33' W 010°04'712.3
2018-Jun-09 23:26N 38°39' W 010°05'612.2
2018-Jun-09 22:59N 38°45' W 010°06'612.2
2018-Jun-09 22:30N 38°51' W 010°07'611.7
2018-Jun-09 22:00N 38°56' W 010°08'612.1
2018-Jun-09 21:30N 39°02' W 010°12'611.8
2018-Jun-09 21:00N 39°08' W 010°13'  
2018-Jun-07 14:53N 50°18' W 010°51'512.1
2018-Jun-07 14:29N 50°23' W 010°52'1012.3
2018-Jun-07 13:41N 50°33' W 010°53'412.4
2018-Jun-07 13:21N 50°37' W 010°53'512.7
2018-Jun-07 12:56N 50°42' W 010°53'612.8
2018-Jun-07 12:30N 50°48' W 010°53'712.6
2018-Jun-07 11:58N 50°55' W 010°53'612.2
2018-Jun-07 11:29N 51°01' W 010°54'612.2
2018-Jun-07 11:00N 51°07' W 010°54'612.2
2018-Jun-07 10:28N 51°13' W 010°55'612.1
2018-Jun-07 10:00N 51°19' W 010°55'712.0
2018-Jun-07 09:27N 51°25' W 010°56'712.3
2018-Jun-07 08:53N 51°32' W 010°56'812.3
2018-Jun-07 08:14N 51°40' W 010°56'412.5
2018-Jun-07 07:56N 51°44' W 010°57'512.5
2018-Jun-07 07:30N 51°49' W 010°57'712.3
2018-Jun-07 06:53N 51°57' W 010°57'712.4
2018-Jun-07 06:18N 52°04' W 010°58'412.1
2018-Jun-07 05:59N 52°08' W 010°57'612.1
2018-Jun-07 05:28N 52°14' W 010°56'1512.5
2018-Jun-07 04:13N 52°30' W 010°54'5412.6
2018-Jun-06 23:59N 53°23' W 010°46'612.4
2018-Jun-06 23:29N 53°29' W 010°45'1012.4
2018-Jun-06 22:39N 53°39' W 010°43'212.5
2018-Jun-06 22:30N 53°41' W 010°43'612.6
2018-Jun-06 22:00N 53°47' W 010°42'612.7
2018-Jun-06 21:30N 53°54' W 010°41'612.4
2018-Jun-06 21:00N 53°60' W 010°40'612.2
2018-Jun-06 20:30N 54°06' W 010°39'712.3
2018-Jun-06 19:57N 54°13' W 010°36'612.4
2018-Jun-06 19:30N 54°18' W 010°34'612.2
2018-Jun-06 19:00N 54°24' W 010°32'  
2018-Jun-04 01:19N 63°08' E 006°28'411.8
2018-Jun-04 01:00N 63°09' E 006°36'611.7
2018-Jun-04 00:30N 63°11' E 006°49'611.6
2018-Jun-04 00:00N 63°12' E 007°01'611.9
2018-Jun-03 23:30N 63°13' E 007°14'612.0
2018-Jun-03 23:00N 63°14' E 007°27'510.8
2018-Jun-03 22:31N 63°14' E 007°39'4 7.5
2018-Jun-03 22:01N 63°12' E 007°46'510.2
2018-Jun-03 21:30N 63°08' E 007°53'510.3
2018-Jun-03 21:00N 63°03' E 007°54'611.9
2018-Jun-03 20:30N 62°59' E 007°43'611.9
2018-Jun-03 20:00N 62°56' E 007°32'4 7.1
2018-Jun-03 19:28N 62°58' E 007°24'0 0.2
2018-Jun-03 18:58N 62°58' E 007°24'0 0.0
2018-Jun-03 18:28N 62°57' E 007°24'0 0.0
2018-Jun-03 17:58N 62°57' E 007°24'0 0.0
2018-Jun-03 17:28N 62°57' E 007°24'0 0.0
2018-Jun-03 16:58N 62°57' E 007°24'0 0.0
2018-Jun-03 16:28N 62°57' E 007°24'0 0.0
2018-Jun-03 15:58N 62°57' E 007°24'0 0.0
2018-Jun-03 15:28N 62°57' E 007°24'0 0.0
2018-Jun-03 14:58N 62°57' E 007°24'0 0.0
2018-Jun-03 14:28N 62°57' E 007°24'0 0.0
2018-Jun-03 13:58N 62°58' E 007°24'0 0.1
2018-Jun-03 13:28N 62°57' E 007°24'0 0.0
2018-Jun-03 12:58N 62°57' E 007°24'0 0.0
2018-Jun-03 12:28N 62°57' E 007°24'0 0.0
2018-Jun-03 11:58N 62°57' E 007°24'0 0.0
2018-Jun-03 11:28N 62°57' E 007°24'0 0.0
2018-Jun-03 10:58N 62°57' E 007°24'0 0.0
2018-Jun-03 10:28N 62°57' E 007°24'0 0.0
2018-Jun-03 09:58N 62°57' E 007°24'0 0.0
2018-Jun-03 09:28N 62°57' E 007°24'0 0.0
2018-Jun-03 08:58N 62°57' E 007°24'0 0.0
2018-Jun-03 08:28N 62°57' E 007°24'0 0.1
2018-Jun-03 07:58N 62°58' E 007°24'0 0.0
2018-Jun-03 07:28N 62°57' E 007°24'0 0.0
2018-Jun-03 06:58N 62°57' E 007°24'0 0.0
2018-Jun-03 06:28N 62°57' E 007°24'0 0.0
2018-Jun-03 05:58N 62°57' E 007°24'0 0.0
2018-Jun-03 05:28N 62°57' E 007°24'0 0.0
2018-Jun-03 04:58N 62°57' E 007°24'0 0.0
2018-Jun-03 04:28N 62°57' E 007°24'0 0.0
2018-Jun-03 03:58N 62°57' E 007°24'0 0.0
2018-Jun-03 03:28N 62°57' E 007°24'0 0.0
2018-Jun-03 02:58N 62°57' E 007°24'0 0.0
2018-Jun-03 02:28N 62°57' E 007°24'0 0.0
2018-Jun-03 01:58N 62°57' E 007°24'0 0.0
2018-Jun-03 01:28N 62°57' E 007°24'0 0.0
2018-Jun-03 00:58N 62°57' E 007°24'0 0.1
2018-Jun-03 00:28N 62°57' E 007°24'0 0.0
2018-Jun-02 23:58N 62°57' E 007°24'0 0.0
2018-Jun-02 23:28N 62°57' E 007°24'0 0.0
2018-Jun-02 22:58N 62°57' E 007°24'0 0.0
2018-Jun-02 22:28N 62°57' E 007°24'0 0.0
2018-Jun-02 21:58N 62°57' E 007°24'  

Dump ship's entire track history